Aeroporto :







RITROVATECI SU...

 
LOGIN :

Iscrizione | Disclaimer

   EN    FR    IT 

 









Sommario :    VFR   VFR Marginale   IFR   IFR Intensivo   IFR Molto Intensivo
Visibilità : 
Base nubi : 
>= 8 km
>= 3000ft
5 / 8 km
1000 / 3000 ft
1500m / 5 km
500 / 1000 ft
800 / 1500m
200 / 500 ft
< 800m
< 200 ft
Simboli :   Temporali  Nebbia  Neve Forte  Precipitazioni Forti  Vento > 20 kt






- Altitudine del aeroporto : 49 ft


KOWD - Norwood Memorial

ULTIMO METAR :
  • 290912Z AUTO 09006KT 3SM BR BKN007 OVC011 07/05 A3013 RMK AO2 P0001 T00720050

METARs OBSOLETI :
  • 290853Z AUTO 10008KT 2 1/2SM BR OVC007 07/05 A3014 RMK AO2 RAB0759E12 CIG 006V010 SLP204 P0001 60007 T00720050 50000
  • 290753Z AUTO 08007KT 4SM BR OVC006 07/05 A3014 RMK AO2 RAB08E43 SLP204 P0002 T00720050
  • 290739Z AUTO 06004KT 3SM -RA BR OVC006 07/05 A3014 RMK AO2 RAB08 P0002 T00720050
  • 290731Z AUTO 07004KT 2 1/2SM -RA BR OVC006 07/05 A3014 RMK AO2 RAB08 P0001 T00720050
  • 290653Z AUTO 05003KT 5SM BR BKN006 OVC025 07/05 A3014 RMK AO2 RAB03E52 SLP205 P0004 T00720050

TAF N/A



MetMap, La meteo Aeronautica in un colpo d'occhio ! - Copyright ORBIFLY Dicembre 2007 - Disclaimer

ORBIFLY MET'MAP TEAM :

Programmazione e sviluppo : Alexandra Zaïnal
Concezione : Baudouin d'Aumeries
Aiuto per la programmazione : Marc-Olivier Méhu
Supporto tecnico e logistico : Manuel Goepfert
Aiuto per la traduzione : Arnaldo La Scala

Contatto : metmap@orbifly.com




FONTI E CREDITI :

   NOAA